Terminal Aerodrome Forecast
Issued by NWS Sterling, VA

Home | Current Version | Previous Version | Text Only | Print | Product List | Glossary On
Versions: 1 2 3 4 5 6 7 8 9 10 11 12 13 14 15 16 17 18 19 20 21 22 23 24 25
000
FTUS41 KLWX 051725
TAFDCA
TAF
KDCA 051725Z 0518/0618 17004KT P6SM FEW060 BKN130
     FM052200 21006KT P6SM VCSH BKN050
     FM060000 28005KT P6SM BKN090
     FM060400 00000KT P6SM BKN090=

USA.gov is the U.S. government's official web portal to all federal, state and local government web resources and services.